createdAt,value
2022-11-28T00:01:17.223Z,5.63
2022-11-28T00:03:44.717Z,7.50
2022-11-28T00:06:12.354Z,5.57
2022-11-28T00:08:41.398Z,5.70
2022-11-28T00:11:09.706Z,6.67
2022-11-28T00:13:37.579Z,6.93
2022-11-28T00:16:06.811Z,6.33
2022-11-28T00:18:34.621Z,6.70
2022-11-28T00:21:02.069Z,5.80
2022-11-28T00:23:30.524Z,7.60
2022-11-28T00:26:00.206Z,7.27
2022-11-28T00:28:27.626Z,6.13
2022-11-28T00:30:55.039Z,5.87
2022-11-28T00:33:22.472Z,8.80
2022-11-28T00:35:49.945Z,10.37
2022-11-28T00:38:17.471Z,6.60
2022-11-28T00:40:44.869Z,7.17
2022-11-28T00:43:13.746Z,9.63
2022-11-28T00:45:41.172Z,8.77
2022-11-28T00:48:08.661Z,8.00
2022-11-28T00:50:36.054Z,10.40
2022-11-28T00:53:03.437Z,9.43
2022-11-28T00:55:30.855Z,8.43
2022-11-28T00:57:58.405Z,8.70
2022-11-28T01:00:27.230Z,7.80
2022-11-28T01:02:54.626Z,10.20
2022-11-28T01:05:22.066Z,8.63
2022-11-28T01:07:49.596Z,11.70
2022-11-28T01:10:17.139Z,10.20
2022-11-28T01:12:44.651Z,8.57
2022-11-28T01:15:13.099Z,8.00
2022-11-28T01:17:41.878Z,9.13
2022-11-28T01:20:10.124Z,8.67
2022-11-28T01:22:37.514Z,6.93
2022-11-28T01:25:05.129Z,10.13
2022-11-28T01:27:32.532Z,10.00
2022-11-28T01:30:00.159Z,9.17
2022-11-28T01:32:27.665Z,7.40
2022-11-28T01:34:56.466Z,9.00
2022-11-28T01:37:23.917Z,9.57
2022-11-28T01:39:51.322Z,9.00
2022-11-28T01:42:19.054Z,8.10
2022-11-28T01:45:04.849Z,7.40
2022-11-28T01:47:32.713Z,7.00
2022-11-28T01:50:01.887Z,7.90
2022-11-28T01:52:29.408Z,9.37
2022-11-28T01:55:00.485Z,10.00
2022-11-28T01:57:28.494Z,8.40
2022-11-28T01:59:58.082Z,7.63
2022-11-28T02:02:28.012Z,11.17
2022-11-28T02:04:55.558Z,7.67
2022-11-28T02:07:24.801Z,9.37
2022-11-28T02:09:52.270Z,8.17
2022-11-28T02:12:26.794Z,9.20
2022-11-28T02:15:06.214Z,10.00
2022-11-28T02:17:41.520Z,9.10
2022-11-28T02:20:21.057Z,9.50
2022-11-28T02:22:53.324Z,9.10
2022-11-28T02:25:35.637Z,8.37
2022-11-28T02:28:21.048Z,11.03
2022-11-28T02:30:54.063Z,8.03
2022-11-28T02:33:27.176Z,9.00
2022-11-28T02:35:58.026Z,9.30
2022-11-28T02:38:32.754Z,8.17
2022-11-28T02:41:03.581Z,8.13
2022-11-28T02:43:34.042Z,8.90
2022-11-28T02:46:05.266Z,9.43
2022-11-28T02:48:37.658Z,8.33
2022-11-28T02:51:08.241Z,10.37
2022-11-28T02:53:36.432Z,8.70
2022-11-28T02:56:04.269Z,8.07
2022-11-28T02:58:31.986Z,8.57
2022-11-28T03:00:59.657Z,7.97
2022-11-28T03:03:37.583Z,7.63
2022-11-28T03:06:10.759Z,7.40
2022-11-28T03:08:44.656Z,8.90
2022-11-28T03:11:16.640Z,8.00
2022-11-28T03:13:51.231Z,9.23
2022-11-28T03:16:24.276Z,8.17
2022-11-28T03:18:56.579Z,7.40
2022-11-28T03:21:26.849Z,9.10
2022-11-28T03:23:58.398Z,11.57
2022-11-28T03:29:12.441Z,10.00
2022-11-28T03:31:42.192Z,8.77
2022-11-28T03:34:11.025Z,8.07
2022-11-28T03:36:41.880Z,8.60
2022-11-28T03:39:10.592Z,8.73
2022-11-28T03:41:39.584Z,8.97
2022-11-28T03:44:08.658Z,8.40
2022-11-28T03:46:37.481Z,10.60
2022-11-28T03:49:07.080Z,7.60
2022-11-28T03:51:36.681Z,9.10
2022-11-28T03:54:08.173Z,8.40
2022-11-28T03:56:39.500Z,9.90
2022-11-28T03:59:09.884Z,9.43
2022-11-28T04:01:41.488Z,8.70
2022-11-28T04:04:12.706Z,7.40
2022-11-28T04:06:45.530Z,8.37
2022-11-28T04:09:16.720Z,9.83
2022-11-28T04:11:46.261Z,10.30
2022-11-28T04:14:15.396Z,8.87
2022-11-28T04:16:49.284Z,10.00
2022-11-28T04:19:24.128Z,7.27
2022-11-28T04:21:54.301Z,7.67
2022-11-28T04:24:28.242Z,9.97
2022-11-28T04:26:58.355Z,11.17
2022-11-28T04:29:26.520Z,13.23
2022-11-28T04:31:56.826Z,9.27
2022-11-28T04:34:25.798Z,7.87
2022-11-28T04:36:54.372Z,8.83
2022-11-28T04:39:25.729Z,10.77
2022-11-28T04:41:54.397Z,9.37
2022-11-28T04:44:24.284Z,11.77
2022-11-28T04:46:52.951Z,10.60
2022-11-28T04:49:20.479Z,8.90
2022-11-28T04:51:51.357Z,9.50
2022-11-28T04:54:21.648Z,9.30
2022-11-28T04:56:52.474Z,9.50
2022-11-28T04:59:21.008Z,9.97
2022-11-28T05:01:49.309Z,10.20
2022-11-28T05:04:17.167Z,10.00
2022-11-28T05:06:44.545Z,10.20
2022-11-28T05:09:12.491Z,11.63
2022-11-28T05:11:39.892Z,9.53
2022-11-28T05:14:08.720Z,13.10
2022-11-28T05:16:36.285Z,8.70
2022-11-28T05:19:03.819Z,10.97
2022-11-28T05:21:31.198Z,9.93
2022-11-28T05:23:58.675Z,7.80
2022-11-28T05:26:26.215Z,9.37
2022-11-28T05:28:53.580Z,8.00
2022-11-28T05:31:22.517Z,11.13
2022-11-28T05:33:49.990Z,8.13
2022-11-28T05:36:18.407Z,9.03
2022-11-28T05:38:45.909Z,10.00
2022-11-28T05:41:19.538Z,8.97
2022-11-28T05:43:46.973Z,8.33
2022-11-28T05:46:14.383Z,9.47
2022-11-28T05:48:43.249Z,10.17
2022-11-28T05:51:10.735Z,9.60
2022-11-28T05:53:38.164Z,8.97
2022-11-28T05:56:09.066Z,8.83
2022-11-28T05:58:36.500Z,9.13
2022-11-28T06:01:09.914Z,8.90
2022-11-28T06:03:37.381Z,9.50
2022-11-28T06:06:09.198Z,10.47
2022-11-28T06:08:36.574Z,9.13
2022-11-28T06:11:03.972Z,10.17
2022-11-28T06:13:31.721Z,7.93
2022-11-28T06:15:59.320Z,11.77
2022-11-28T06:18:26.751Z,9.67
2022-11-28T06:20:54.316Z,8.80
2022-11-28T06:23:23.140Z,8.80
2022-11-28T06:25:50.585Z,8.53
2022-11-28T06:28:18.052Z,8.87
2022-11-28T06:30:45.557Z,7.90
2022-11-28T06:33:13.248Z,13.47
2022-11-28T06:35:41.055Z,9.10
2022-11-28T06:38:12.943Z,9.23
2022-11-28T06:40:43.088Z,9.67
2022-11-28T06:43:10.478Z,11.97
2022-11-28T06:45:37.975Z,10.73
2022-11-28T06:48:05.475Z,11.73
2022-11-28T06:50:33.422Z,9.97
2022-11-28T06:53:00.869Z,9.20
2022-11-28T06:55:30.254Z,10.83
2022-11-28T06:57:59.003Z,9.50
2022-11-28T07:00:26.951Z,9.80
2022-11-28T07:02:54.455Z,9.53
2022-11-28T07:05:22.932Z,12.13
2022-11-28T07:07:54.372Z,11.40
2022-11-28T07:10:22.081Z,9.23
2022-11-28T07:12:53.900Z,10.80
2022-11-28T07:15:22.763Z,9.67
2022-11-28T07:17:50.191Z,9.90
2022-11-28T07:20:17.677Z,14.30
2022-11-28T07:22:46.799Z,8.90
2022-11-28T07:25:16.031Z,9.63
2022-11-28T07:27:43.758Z,12.50
2022-11-28T07:30:11.778Z,10.20
2022-11-28T07:32:41.660Z,10.83
2022-11-28T07:35:09.343Z,10.60
2022-11-28T07:37:36.750Z,10.93
2022-11-28T07:40:04.837Z,9.87
2022-11-28T07:42:32.265Z,9.47
2022-11-28T07:44:59.653Z,9.00
2022-11-28T07:47:27.055Z,10.30
2022-11-28T07:49:55.923Z,13.37
2022-11-28T07:52:23.327Z,10.63
2022-11-28T07:54:51.132Z,16.67
2022-11-28T07:57:18.638Z,11.43
2022-11-28T07:59:46.199Z,12.63
2022-11-28T08:02:14.002Z,11.30
2022-11-28T08:04:48.393Z,12.40
2022-11-28T08:07:18.355Z,11.27
2022-11-28T08:09:45.954Z,9.13
2022-11-28T08:12:13.454Z,10.90
2022-11-28T08:14:41.194Z,10.10
2022-11-28T08:17:09.669Z,12.07
2022-11-28T08:19:37.114Z,8.93
2022-11-28T08:22:04.532Z,8.60
2022-11-28T08:24:33.292Z,10.70
2022-11-28T08:27:00.761Z,12.00
2022-11-28T08:29:28.183Z,13.43
2022-11-28T08:31:55.646Z,9.07
2022-11-28T08:34:23.043Z,8.43
2022-11-28T08:36:50.429Z,11.40
2022-11-28T08:39:25.429Z,11.40
2022-11-28T08:41:57.117Z,10.23
2022-11-28T08:44:24.675Z,11.30
2022-11-28T08:46:52.101Z,11.80
2022-11-28T08:49:19.643Z,10.37
2022-11-28T08:51:47.141Z,8.53
2022-11-28T08:54:14.572Z,10.03
2022-11-28T08:56:42.004Z,9.10
2022-11-28T08:59:11.221Z,9.47
2022-11-28T09:01:39.481Z,8.63
2022-11-28T09:04:07.257Z,8.93
2022-11-28T09:06:34.834Z,14.03
2022-11-28T09:09:02.842Z,11.20
2022-11-28T09:11:30.246Z,11.50
2022-11-28T09:13:57.693Z,12.80
2022-11-28T09:16:26.487Z,10.13
2022-11-28T09:18:54.917Z,9.57
2022-11-28T09:21:22.296Z,11.60
2022-11-28T09:23:49.669Z,10.67
2022-11-28T09:26:17.641Z,13.50
2022-11-28T09:28:45.428Z,11.17
2022-11-28T09:31:13.434Z,12.63
2022-11-28T09:33:42.612Z,10.53
2022-11-28T09:36:11.157Z,10.50
2022-11-28T09:38:38.645Z,11.70
2022-11-28T09:41:21.810Z,11.17
2022-11-28T09:43:54.742Z,10.17
2022-11-28T09:46:26.662Z,10.97
2022-11-28T09:48:56.770Z,11.67
2022-11-28T09:51:26.829Z,10.00
2022-11-28T09:53:59.519Z,10.77
2022-11-28T09:56:26.944Z,11.40
2022-11-28T09:58:57.756Z,10.33
2022-11-28T10:01:28.600Z,10.00
2022-11-28T10:04:00.651Z,10.87
2022-11-28T10:06:30.575Z,10.17
2022-11-28T10:09:07.707Z,9.90
2022-11-28T10:11:40.097Z,11.20
2022-11-28T10:14:17.071Z,11.53
2022-11-28T10:16:48.335Z,12.17
2022-11-28T10:19:45.987Z,10.17
2022-11-28T10:22:07.550Z,11.93
2022-11-28T10:24:36.962Z,14.67
2022-11-28T10:27:05.014Z,12.07
2022-11-28T10:29:34.118Z,12.47
2022-11-28T10:32:02.759Z,9.50
2022-11-28T10:34:33.273Z,12.40
2022-11-28T10:37:02.705Z,14.87
2022-11-28T10:39:30.188Z,14.20
2022-11-28T10:42:12.446Z,12.00
2022-11-28T10:44:45.656Z,13.13
2022-11-28T10:47:17.984Z,15.67
2022-11-28T10:49:53.001Z,12.20
2022-11-28T10:52:22.577Z,12.63
2022-11-28T10:55:04.311Z,12.97
2022-11-28T10:57:36.984Z,11.10
2022-11-28T11:00:10.636Z,10.73
2022-11-28T11:02:39.127Z,16.33
2022-11-28T11:05:13.010Z,13.60
2022-11-28T11:07:44.342Z,12.63
2022-11-28T11:10:15.853Z,11.73
2022-11-28T11:12:43.879Z,12.13
2022-11-28T11:15:16.863Z,16.47
2022-11-28T11:17:44.393Z,9.83
2022-11-28T11:20:29.761Z,19.30
2022-11-28T11:22:59.214Z,10.97
2022-11-28T11:25:27.236Z,11.97
2022-11-28T11:27:55.996Z,12.93
2022-11-28T11:30:27.251Z,10.73
2022-11-28T11:32:55.141Z,12.43
2022-11-28T11:35:23.846Z,11.20
2022-11-28T11:37:51.291Z,14.40
2022-11-28T11:40:23.205Z,11.23
2022-11-28T11:42:54.988Z,14.10
2022-11-28T11:45:27.210Z,12.70
2022-11-28T11:47:54.751Z,14.47
2022-11-28T11:50:22.954Z,13.77
2022-11-28T11:53:01.791Z,13.70
2022-11-28T11:55:31.797Z,10.10
2022-11-28T11:58:05.274Z,13.00
2022-11-28T12:00:36.545Z,15.70
2022-11-28T12:03:05.818Z,14.57
2022-11-28T12:05:58.948Z,13.57
2022-11-28T12:08:31.602Z,12.77
2022-11-28T12:11:06.478Z,13.03
2022-11-28T12:13:34.137Z,15.73
2022-11-28T12:16:04.856Z,12.03
2022-11-28T12:18:35.495Z,14.13
2022-11-28T12:21:07.798Z,13.93
2022-11-28T12:23:41.912Z,13.00
2022-11-28T12:26:16.670Z,13.10
2022-11-28T12:28:52.093Z,13.70
2022-11-28T12:31:26.591Z,14.80
2022-11-28T12:33:59.919Z,12.47
2022-11-28T12:36:29.951Z,13.87
2022-11-28T12:39:04.142Z,13.50
2022-11-28T12:41:42.277Z,12.30
2022-11-28T12:44:18.164Z,16.80
2022-11-28T12:46:47.924Z,17.60
2022-11-28T12:49:17.919Z,26.27
2022-11-28T12:51:53.280Z,20.43
2022-11-28T12:54:28.418Z,15.17
2022-11-28T12:57:01.921Z,13.67
2022-11-28T12:59:33.686Z,18.93
2022-11-28T13:02:08.268Z,14.30
2022-11-28T13:04:50.451Z,19.03
2022-11-28T13:07:22.206Z,20.70
2022-11-28T13:09:56.162Z,17.97
2022-11-28T13:12:30.299Z,15.23
2022-11-28T13:14:58.446Z,20.27
2022-11-28T13:17:35.835Z,16.10
2022-11-28T13:20:08.411Z,16.77
2022-11-28T13:22:39.992Z,18.80
2022-11-28T13:25:10.781Z,20.33
2022-11-28T13:27:43.658Z,18.33
2022-11-28T13:30:17.856Z,12.87
2022-11-28T13:32:47.427Z,31.47
2022-11-28T13:35:16.615Z,25.43
2022-11-28T13:40:41.124Z,16.27
2022-11-28T13:43:13.964Z,16.13
2022-11-28T13:45:42.410Z,15.87
2022-11-28T13:48:42.930Z,15.23
2022-11-28T13:51:20.758Z,12.30
2022-11-28T13:53:49.881Z,18.60
2022-11-28T13:56:21.843Z,16.23
2022-11-28T13:58:52.766Z,17.63
2022-11-28T14:01:21.373Z,18.30
2022-11-28T14:03:49.549Z,15.00
2022-11-28T14:06:19.358Z,16.00
2022-11-28T14:08:47.659Z,15.60
2022-11-28T14:11:36.085Z,18.37
2022-11-28T14:14:13.437Z,17.37
2022-11-28T14:16:51.553Z,15.80
2022-11-28T14:19:25.957Z,19.63
2022-11-28T14:21:58.261Z,14.07
2022-11-28T14:24:29.109Z,16.70
2022-11-28T14:26:58.373Z,15.37
2022-11-28T14:29:31.894Z,11.53
2022-11-28T14:32:29.568Z,15.67
2022-11-28T14:34:47.673Z,11.40
2022-11-28T14:37:35.157Z,11.27
2022-11-28T14:40:03.497Z,12.77
2022-11-28T14:42:59.530Z,17.77
2022-11-28T14:45:41.705Z,13.67
2022-11-28T14:48:16.604Z,14.47
2022-11-28T14:50:48.183Z,14.47
2022-11-28T14:53:34.367Z,16.70
2022-11-28T14:56:11.905Z,15.27
2022-11-28T14:58:39.460Z,12.57
2022-11-28T15:01:12.358Z,10.17
2022-11-28T15:03:42.865Z,11.20
2022-11-28T15:06:12.136Z,11.90
2022-11-28T15:08:49.867Z,11.33
2022-11-28T15:11:22.334Z,10.10
2022-11-28T15:13:57.220Z,10.97
2022-11-28T15:16:29.473Z,10.53
2022-11-28T15:18:59.698Z,13.70
2022-11-28T15:21:27.090Z,13.40
2022-11-28T15:23:55.565Z,10.10
2022-11-28T15:26:23.793Z,13.17
2022-11-28T15:29:08.289Z,10.77
2022-11-28T15:31:37.325Z,12.07
2022-11-28T15:34:08.594Z,10.40
2022-11-28T15:36:36.220Z,19.20
2022-11-28T15:39:03.648Z,24.00
2022-11-28T15:41:31.035Z,12.30
2022-11-28T15:43:58.514Z,11.90
2022-11-28T15:46:31.472Z,9.50
2022-11-28T15:49:01.407Z,8.23
2022-11-28T15:51:30.386Z,9.33
2022-11-28T15:53:57.946Z,11.10
2022-11-28T15:56:25.345Z,10.90
2022-11-28T15:58:53.305Z,11.33
2022-11-28T16:01:21.666Z,14.10
2022-11-28T16:03:51.414Z,10.37
2022-11-28T16:06:20.723Z,10.80
2022-11-28T16:08:50.225Z,13.37
2022-11-28T16:11:19.754Z,9.73
2022-11-28T16:13:47.770Z,11.07
2022-11-28T16:16:17.414Z,11.57
2022-11-28T16:18:46.191Z,11.53
2022-11-28T16:21:14.384Z,11.70
2022-11-28T16:23:43.448Z,11.67
2022-11-28T16:26:22.642Z,11.93
2022-11-28T16:28:57.417Z,9.93
2022-11-28T16:31:26.400Z,10.70
2022-11-28T16:33:53.778Z,11.20
2022-11-28T16:36:22.513Z,12.83
2022-11-28T16:38:52.107Z,12.07
2022-11-28T16:41:21.946Z,12.20
2022-11-28T16:43:50.973Z,12.67
2022-11-28T16:46:20.796Z,14.20
2022-11-28T16:48:49.259Z,14.10
2022-11-28T16:51:34.444Z,11.97
2022-11-28T16:54:23.220Z,10.93
2022-11-28T16:56:50.675Z,9.90
2022-11-28T16:59:18.813Z,13.50
2022-11-28T17:01:47.113Z,13.70
2022-11-28T17:04:21.976Z,18.27
2022-11-28T17:06:49.900Z,13.63
2022-11-28T17:09:18.807Z,15.47
2022-11-28T17:11:47.568Z,19.87
2022-11-28T17:14:15.305Z,18.43
2022-11-28T17:16:43.632Z,14.77
2022-11-28T17:19:11.081Z,17.60
2022-11-28T17:21:40.126Z,19.33
2022-11-28T17:24:12.970Z,18.43
2022-11-28T17:26:41.895Z,19.13
2022-11-28T17:29:11.129Z,18.40
2022-11-28T17:31:42.046Z,19.93
2022-11-28T17:34:14.745Z,17.20
2022-11-28T17:36:42.217Z,17.77
2022-11-28T17:39:09.743Z,16.87
2022-11-28T17:41:37.760Z,17.00
2022-11-28T17:44:06.943Z,13.73
2022-11-28T17:46:34.313Z,14.87
2022-11-28T17:49:01.768Z,12.33
2022-11-28T17:51:29.228Z,15.80
2022-11-28T17:53:56.648Z,12.80
2022-11-28T17:56:24.106Z,14.90
2022-11-28T17:58:51.902Z,11.40
2022-11-28T18:01:22.902Z,15.10
2022-11-28T18:03:50.404Z,14.40
2022-11-28T18:06:18.318Z,13.77
2022-11-28T18:08:46.321Z,13.33
2022-11-28T18:11:14.528Z,11.83
2022-11-28T18:13:42.531Z,12.57
2022-11-28T18:16:10.275Z,13.40
2022-11-28T18:18:39.099Z,13.23
2022-11-28T18:21:08.664Z,13.53
2022-11-28T18:23:36.329Z,12.63
2022-11-28T18:26:06.396Z,13.07
2022-11-28T18:28:33.872Z,12.67
2022-11-28T18:31:01.330Z,13.13
2022-11-28T18:33:28.741Z,15.60
2022-11-28T18:36:08.396Z,26.27
2022-11-28T18:38:35.872Z,21.43
2022-11-28T18:41:05.797Z,23.87
2022-11-28T18:43:33.222Z,24.13
2022-11-28T18:46:03.560Z,19.03
2022-11-28T18:48:31.023Z,18.83
2022-11-28T18:50:59.816Z,16.03
2022-11-28T18:53:27.327Z,18.90
2022-11-28T18:56:00.997Z,13.20
2022-11-28T18:58:29.170Z,13.87
2022-11-28T19:00:57.037Z,12.70
2022-11-28T19:03:25.227Z,14.60
2022-11-28T19:05:52.986Z,12.73
2022-11-28T19:08:22.510Z,12.67
2022-11-28T19:10:50.489Z,14.27
2022-11-28T19:13:18.411Z,12.77
2022-11-28T19:15:46.145Z,19.33
2022-11-28T19:18:14.260Z,15.03
2022-11-28T19:20:42.660Z,14.67
2022-11-28T19:23:10.459Z,17.10
2022-11-28T19:25:42.626Z,19.67
2022-11-28T19:28:10.403Z,21.50
2022-11-28T19:30:38.293Z,25.73
2022-11-28T19:33:06.059Z,16.80
2022-11-28T19:35:34.373Z,16.40
2022-11-28T19:38:01.817Z,14.77
2022-11-28T19:40:29.229Z,14.50
2022-11-28T19:42:58.041Z,22.50
2022-11-28T19:45:25.458Z,19.07
2022-11-28T19:47:52.906Z,15.30
2022-11-28T19:50:20.396Z,15.50
2022-11-28T19:52:47.834Z,20.63
2022-11-28T19:55:15.292Z,18.70
2022-11-28T19:57:42.763Z,19.80
2022-11-28T20:00:12.490Z,17.80
2022-11-28T20:02:40.086Z,17.50
2022-11-28T20:05:08.465Z,20.13
2022-11-28T20:07:36.615Z,18.80
2022-11-28T20:10:07.839Z,20.00
2022-11-28T20:12:35.564Z,17.37
2022-11-28T20:15:03.372Z,20.67
2022-11-28T20:17:32.894Z,16.80
2022-11-28T20:20:00.690Z,18.47
2022-11-28T20:22:28.096Z,16.00
2022-11-28T20:24:55.506Z,14.50
2022-11-28T20:27:22.970Z,15.27
2022-11-28T20:29:50.422Z,17.73
2022-11-28T20:32:17.841Z,17.80
2022-11-28T20:34:46.676Z,16.17
2022-11-28T20:37:14.155Z,19.47
2022-11-28T20:39:41.762Z,20.20
2022-11-28T20:42:09.475Z,19.40
2022-11-28T20:44:37.038Z,18.67
2022-11-28T20:47:04.528Z,18.80
2022-11-28T20:49:31.927Z,24.80
2022-11-28T20:52:00.750Z,21.90
2022-11-28T20:54:28.222Z,21.20
2022-11-28T20:57:20.234Z,17.90
2022-11-28T20:59:43.464Z,18.30
2022-11-28T21:02:11.431Z,16.93
2022-11-28T21:04:38.936Z,16.60
2022-11-28T21:07:07.751Z,18.53
2022-11-28T21:09:35.237Z,16.50
2022-11-28T21:12:02.687Z,21.90
2022-11-28T21:14:30.356Z,16.87
2022-11-28T21:16:58.342Z,19.63
2022-11-28T21:19:25.801Z,18.83
2022-11-28T21:21:53.395Z,18.70
2022-11-28T21:24:22.146Z,22.70
2022-11-28T21:26:53.400Z,17.10
2022-11-28T21:29:22.001Z,17.87
2022-11-28T21:31:49.566Z,18.07
2022-11-28T21:34:17.734Z,20.63
2022-11-28T21:36:45.690Z,17.37
2022-11-28T21:39:13.672Z,20.47
2022-11-28T21:41:42.933Z,17.90
2022-11-28T21:44:10.572Z,16.23
2022-11-28T21:46:38.086Z,16.90
2022-11-28T21:49:05.638Z,19.20
2022-11-28T21:51:33.044Z,18.63
2022-11-28T21:54:02.043Z,16.23
2022-11-28T21:56:29.537Z,20.77
2022-11-28T21:58:58.282Z,18.53
2022-11-28T22:01:25.734Z,18.77
2022-11-28T22:03:54.391Z,17.70
2022-11-28T22:06:25.578Z,22.07
2022-11-28T22:08:53.623Z,21.30
2022-11-28T22:11:21.795Z,17.60
2022-11-28T22:13:50.031Z,19.77
2022-11-28T22:16:20.675Z,18.30
2022-11-28T22:18:48.539Z,15.90
2022-11-28T22:24:03.898Z,16.23
2022-11-28T22:26:31.332Z,17.80
2022-11-28T22:28:59.281Z,19.40
2022-11-28T22:31:28.183Z,19.63
2022-11-28T22:33:55.696Z,18.37
2022-11-28T22:36:23.541Z,18.40
2022-11-28T22:38:54.684Z,16.17
2022-11-28T22:41:28.427Z,18.53
2022-11-28T22:43:59.071Z,21.03
2022-11-28T22:46:27.909Z,19.93
2022-11-28T22:48:55.293Z,20.97
2022-11-28T22:51:23.879Z,22.97
2022-11-28T22:53:53.179Z,17.40
2022-11-28T22:56:20.737Z,21.20
2022-11-28T22:58:48.691Z,21.93
2022-11-28T23:01:17.246Z,21.20
2022-11-28T23:03:46.452Z,21.47
2022-11-28T23:06:14.670Z,18.30
2022-11-28T23:08:42.269Z,21.00
2022-11-28T23:11:11.093Z,21.50
2022-11-28T23:13:39.206Z,18.07
2022-11-28T23:16:10.607Z,20.40
2022-11-28T23:18:38.522Z,19.80
2022-11-28T23:21:08.015Z,18.40
2022-11-28T23:23:36.084Z,19.23
2022-11-28T23:26:05.375Z,20.87
2022-11-28T23:28:33.784Z,19.30
2022-11-28T23:31:07.736Z,22.23
2022-11-28T23:33:35.205Z,17.63
2022-11-28T23:36:12.707Z,22.57
2022-11-28T23:38:40.102Z,19.40
2022-11-28T23:41:07.634Z,19.33
2022-11-28T23:43:35.134Z,19.43
2022-11-28T23:46:02.751Z,19.10
2022-11-28T23:48:30.354Z,20.33
2022-11-28T23:50:57.734Z,20.33
2022-11-28T23:53:26.858Z,21.43
2022-11-28T23:55:54.353Z,20.60
2022-11-28T23:58:22.084Z,18.83
